Terminal Aerodrome Forecast
Issued by NWS

Home | Current Version | Previous Version | Text Only | Print | Product List | Glossary On
Versions: 1 2 3 4 5 6 7 8 9 10 11 12 13
895
FTUS43 KSGF 091121
TAFJLN
TAF
KJLN 091121Z 0912/1012 29008KT P6SM SCT100
     FM091400 32016G25KT P6SM SKC
     FM100000 34007KT P6SM SKC
     FM100500 36004KT P6SM SCT100=

USA.gov is the U.S. government's official web portal to all federal, state and local government web resources and services.